createdAt,value
2017-03-28T00:00:46.224Z,1015.24
2017-03-28T00:01:41.215Z,1015.24
2017-03-28T00:02:41.305Z,1015.27
2017-03-28T00:03:36.398Z,1015.30
2017-03-28T00:04:31.368Z,1015.29
2017-03-28T00:05:31.395Z,1015.29
2017-03-28T00:06:26.394Z,1015.29
2017-03-28T00:07:21.739Z,1015.32
2017-03-28T00:08:21.784Z,1015.30
2017-03-28T00:09:16.464Z,1015.32
2017-03-28T00:10:11.529Z,1015.30
2017-03-28T00:11:12.609Z,1015.34
2017-03-28T00:12:12.580Z,1015.32
2017-03-28T00:13:12.593Z,1015.35
2017-03-28T00:14:12.640Z,1015.33
2017-03-28T00:15:13.662Z,1015.32
2017-03-28T00:16:14.657Z,1015.32
2017-03-28T00:17:08.666Z,1015.35
2017-03-28T00:18:02.755Z,1015.37
2017-03-28T00:18:51.828Z,1015.35
2017-03-28T00:19:40.871Z,1015.36
2017-03-28T00:20:29.868Z,1015.35
2017-03-28T00:21:30.902Z,1015.33
2017-03-28T00:22:30.904Z,1015.33
2017-03-28T00:23:25.958Z,1015.31
2017-03-28T00:24:25.904Z,1015.32
2017-03-28T00:25:20.130Z,1015.30
2017-03-28T00:26:15.052Z,1015.29
2017-03-28T00:27:04.037Z,1015.30
2017-03-28T00:27:58.156Z,1015.28
2017-03-28T00:28:52.140Z,1015.31
2017-03-28T00:29:46.112Z,1015.33
2017-03-28T00:30:35.161Z,1015.25
2017-03-28T00:31:29.166Z,1015.28
2017-03-28T00:32:29.212Z,1015.29
2017-03-28T00:33:17.292Z,1015.25
2017-03-28T00:34:12.375Z,1015.28
2017-03-28T00:35:01.306Z,1015.24
2017-03-28T00:35:55.522Z,1015.25
2017-03-28T00:36:49.432Z,1015.25
2017-03-28T00:37:38.465Z,1015.21
2017-03-28T00:38:27.571Z,1015.27
2017-03-28T00:39:21.629Z,1015.25
2017-03-28T00:40:16.545Z,1015.23
2017-03-28T00:41:11.599Z,1015.23
2017-03-28T00:42:11.668Z,1015.24
2017-03-28T00:43:06.641Z,1015.21
2017-03-28T00:44:01.694Z,1015.23
2017-03-28T00:45:01.699Z,1015.22
2017-03-28T00:45:56.718Z,1015.21
2017-03-28T00:46:56.751Z,1015.22
2017-03-28T00:47:56.810Z,1015.20
2017-03-28T00:48:56.873Z,1015.19
2017-03-28T00:49:50.881Z,1015.25
2017-03-28T00:50:50.818Z,1015.21
2017-03-28T00:51:45.849Z,1015.23
2017-03-28T00:52:41.327Z,1015.24
2017-03-28T00:53:41.951Z,1015.18
2017-03-28T00:54:41.984Z,1015.20
2017-03-28T00:55:42.019Z,1015.16
2017-03-28T00:56:37.039Z,1015.13
2017-03-28T00:57:31.580Z,1015.11
2017-03-28T00:58:31.042Z,1015.15
2017-03-28T00:59:26.102Z,1015.11
2017-03-28T01:00:32.156Z,1015.13
2017-03-28T01:01:27.128Z,1015.09
2017-03-28T01:02:21.152Z,1015.09
2017-03-28T01:03:22.296Z,1015.10
2017-03-28T01:04:17.286Z,1015.05
2017-03-28T01:05:11.342Z,1015.04
2017-03-28T01:06:12.340Z,1015.04
2017-03-28T01:07:12.636Z,1015.04
2017-03-28T01:08:12.363Z,1015.01
2017-03-28T01:09:12.464Z,1015.03
2017-03-28T01:10:13.620Z,1014.99
2017-03-28T01:11:14.442Z,1015.00
2017-03-28T01:12:08.458Z,1014.99
2017-03-28T01:13:08.518Z,1014.96
2017-03-28T01:14:03.566Z,1014.91
2017-03-28T01:14:58.593Z,1014.93
2017-03-28T01:15:58.589Z,1014.93
2017-03-28T01:16:53.656Z,1014.87
2017-03-28T01:17:48.785Z,1014.90
2017-03-28T01:18:48.688Z,1014.89
2017-03-28T01:19:43.762Z,1014.84
2017-03-28T01:20:38.718Z,1014.91
2017-03-28T01:21:39.783Z,1014.86
2017-03-28T01:22:39.780Z,1014.84
2017-03-28T01:23:39.824Z,1014.81
2017-03-28T01:24:35.008Z,1014.79
2017-03-28T01:25:34.844Z,1014.79
2017-03-28T01:26:34.914Z,1014.77
2017-03-28T01:27:29.000Z,1014.77
2017-03-28T01:28:28.939Z,1014.79
2017-03-28T01:29:24.003Z,1014.77
2017-03-28T01:30:23.995Z,1014.75
2017-03-28T01:31:18.046Z,1014.74
2017-03-28T01:32:18.040Z,1014.74
2017-03-28T01:33:13.070Z,1014.74
2017-03-28T01:34:08.087Z,1014.74
2017-03-28T01:35:09.122Z,1014.71
2017-03-28T01:36:09.195Z,1014.68
2017-03-28T01:37:04.143Z,1014.68
2017-03-28T01:38:04.294Z,1014.62
2017-03-28T01:39:04.251Z,1014.66
2017-03-28T01:40:10.228Z,1014.65
2017-03-28T01:41:05.246Z,1014.65
2017-03-28T01:42:05.322Z,1014.66
2017-03-28T01:43:00.357Z,1014.69
2017-03-28T01:43:55.410Z,1014.64
2017-03-28T01:44:56.574Z,1014.68
2017-03-28T01:45:56.405Z,1014.64
2017-03-28T01:46:56.425Z,1014.63
2017-03-28T01:47:56.551Z,1014.62
2017-03-28T01:48:57.581Z,1014.58
2017-03-28T01:49:58.542Z,1014.61
2017-03-28T01:50:52.587Z,1014.60
2017-03-28T01:51:52.628Z,1014.56
2017-03-28T01:52:47.635Z,1014.56
2017-03-28T01:53:42.693Z,1014.53
2017-03-28T01:54:42.757Z,1014.48
2017-03-28T01:55:37.715Z,1014.47
2017-03-28T01:56:32.733Z,1014.51
2017-03-28T01:57:32.741Z,1014.46
2017-03-28T01:58:27.819Z,1014.44
2017-03-28T01:59:22.849Z,1014.46
2017-03-28T02:00:23.944Z,1014.43
2017-03-28T02:01:23.996Z,1014.42
2017-03-28T02:02:23.959Z,1014.42
2017-03-28T02:03:18.952Z,1014.40
2017-03-28T02:04:18.975Z,1014.38
2017-03-28T02:05:19.037Z,1014.36
2017-03-28T02:06:13.049Z,1014.36
2017-03-28T02:07:14.049Z,1014.35
2017-03-28T02:08:14.102Z,1014.37
2017-03-28T02:09:14.089Z,1014.29
2017-03-28T02:10:14.222Z,1014.33
2017-03-28T02:11:20.143Z,1014.29
2017-03-28T02:12:15.257Z,1014.32
2017-03-28T02:13:15.200Z,1014.32
2017-03-28T02:14:09.263Z,1014.33
2017-03-28T02:15:09.262Z,1014.31
2017-03-28T02:16:04.281Z,1014.34
2017-03-28T02:17:04.306Z,1014.29
2017-03-28T02:18:04.400Z,1014.27
2017-03-28T02:19:04.439Z,1014.28
2017-03-28T02:19:58.415Z,1014.27
2017-03-28T02:20:58.444Z,1014.28
2017-03-28T02:21:53.486Z,1014.27
2017-03-28T02:22:48.458Z,1014.27
2017-03-28T02:23:48.568Z,1014.30
2017-03-28T02:24:43.581Z,1014.26
2017-03-28T02:25:38.562Z,1014.24
2017-03-28T02:26:38.609Z,1014.23
2017-03-28T02:27:33.618Z,1014.23
2017-03-28T02:28:33.598Z,1014.22
2017-03-28T02:29:33.690Z,1014.22
2017-03-28T02:30:34.131Z,1014.18
2017-03-28T02:31:27.750Z,1014.22
2017-03-28T02:32:27.765Z,1014.17
2017-03-28T02:33:22.787Z,1014.19
2017-03-28T02:34:22.882Z,1014.18
2017-03-28T02:35:22.863Z,1014.18
2017-03-28T02:36:22.835Z,1014.13
2017-03-28T02:37:16.906Z,1014.15
2017-03-28T02:38:17.924Z,1014.14
2017-03-28T02:39:17.915Z,1014.09
2017-03-28T02:40:12.955Z,1014.09
2017-03-28T02:41:13.017Z,1014.10
2017-03-28T02:42:07.155Z,1014.15
2017-03-28T02:43:07.049Z,1014.09
2017-03-28T02:44:02.061Z,1014.15
2017-03-28T02:44:57.128Z,1014.07
2017-03-28T02:45:57.121Z,1014.09
2017-03-28T02:46:52.166Z,1014.07
2017-03-28T02:47:47.290Z,1014.06
2017-03-28T02:48:47.328Z,1014.04
2017-03-28T02:49:42.282Z,1014.08
2017-03-28T02:50:42.357Z,1014.07
2017-03-28T02:51:42.309Z,1014.07
2017-03-28T02:52:42.403Z,1014.01
2017-03-28T02:53:36.369Z,1014.02
2017-03-28T02:54:36.371Z,1014.01
2017-03-28T02:55:31.427Z,1013.99
2017-03-28T02:56:31.440Z,1014.04
2017-03-28T02:57:31.426Z,1013.98
2017-03-28T02:58:31.558Z,1013.98
2017-03-28T02:59:25.536Z,1014.01
2017-03-28T03:00:25.547Z,1013.99
2017-03-28T03:01:20.556Z,1014.00
2017-03-28T03:02:15.632Z,1013.98
2017-03-28T03:03:16.637Z,1013.97
2017-03-28T03:04:16.674Z,1013.95
2017-03-28T03:05:16.690Z,1013.95
2017-03-28T03:06:11.712Z,1013.98
2017-03-28T03:07:05.754Z,1014.02
2017-03-28T03:08:05.766Z,1014.00
2017-03-28T03:09:00.802Z,1014.01
2017-03-28T03:10:00.970Z,1013.97
2017-03-28T03:10:54.850Z,1014.00
2017-03-28T03:11:54.870Z,1014.00
2017-03-28T03:12:49.952Z,1013.96
2017-03-28T03:13:45.022Z,1013.95
2017-03-28T03:14:44.939Z,1014.01
2017-03-28T03:15:40.051Z,1013.97
2017-03-28T03:16:35.023Z,1013.96
2017-03-28T03:17:36.056Z,1013.95
2017-03-28T03:18:36.051Z,1013.96
2017-03-28T03:19:36.128Z,1013.94
2017-03-28T03:20:31.129Z,1013.95
2017-03-28T03:21:25.157Z,1013.91
2017-03-28T03:22:26.206Z,1013.97
2017-03-28T03:23:26.530Z,1013.97
2017-03-28T03:24:26.251Z,1013.95
2017-03-28T03:25:21.247Z,1013.94
2017-03-28T03:26:15.284Z,1013.94
2017-03-28T03:27:15.367Z,1013.94
2017-03-28T03:28:10.311Z,1013.94
2017-03-28T03:29:10.417Z,1013.93
2017-03-28T03:30:10.390Z,1013.92
2017-03-28T03:31:10.432Z,1013.93
2017-03-28T03:32:10.439Z,1013.94
2017-03-28T03:33:10.529Z,1013.93
2017-03-28T03:34:04.526Z,1013.94
2017-03-28T03:35:04.559Z,1013.89
2017-03-28T03:35:59.529Z,1013.95
2017-03-28T03:36:54.621Z,1013.91
2017-03-28T03:37:55.678Z,1013.92
2017-03-28T03:38:55.643Z,1013.93
2017-03-28T03:39:55.638Z,1013.87
2017-03-28T03:40:50.693Z,1013.93
2017-03-28T03:41:44.729Z,1013.89
2017-03-28T03:42:44.755Z,1013.90
2017-03-28T03:43:39.829Z,1013.93
2017-03-28T03:44:39.864Z,1013.96
2017-03-28T03:45:33.836Z,1013.92
2017-03-28T03:46:33.891Z,1013.95
2017-03-28T03:47:28.898Z,1013.95
2017-03-28T03:48:23.945Z,1013.93
2017-03-28T03:49:23.930Z,1013.94
2017-03-28T03:50:19.053Z,1013.93
2017-03-28T03:51:14.295Z,1013.92
2017-03-28T03:52:14.986Z,1013.93
2017-03-28T03:53:14.978Z,1013.90
2017-03-28T03:54:15.044Z,1013.90
2017-03-28T03:55:10.155Z,1013.94
2017-03-28T03:56:04.263Z,1013.94
2017-03-28T03:57:04.195Z,1013.93
2017-03-28T03:57:59.274Z,1013.89
2017-03-28T03:58:59.267Z,1013.86
2017-03-28T03:59:53.286Z,1013.90
2017-03-28T04:00:54.307Z,1013.90
2017-03-28T04:01:55.365Z,1013.87
2017-03-28T04:02:50.368Z,1013.88
2017-03-28T04:03:44.383Z,1013.83
2017-03-28T04:04:45.412Z,1013.89
2017-03-28T04:05:45.457Z,1013.84
2017-03-28T04:06:45.446Z,1013.82
2017-03-28T04:07:40.533Z,1013.84
2017-03-28T04:08:34.532Z,1013.85
2017-03-28T04:09:34.542Z,1013.85
2017-03-28T04:10:29.597Z,1013.85
2017-03-28T04:11:35.619Z,1013.87
2017-03-28T04:12:30.626Z,1013.83
2017-03-28T04:13:24.661Z,1013.87
2017-03-28T04:14:25.683Z,1013.83
2017-03-28T04:15:20.750Z,1013.82
2017-03-28T04:16:14.770Z,1013.81
2017-03-28T04:17:14.775Z,1013.85
2017-03-28T04:18:09.814Z,1013.84
2017-03-28T04:19:09.881Z,1013.86
2017-03-28T04:20:04.444Z,1013.84
2017-03-28T04:21:04.418Z,1013.87
2017-03-28T04:21:58.891Z,1013.84
2017-03-28T04:22:53.941Z,1013.85
2017-03-28T04:23:53.980Z,1013.87
2017-03-28T04:24:48.969Z,1013.86
2017-03-28T04:25:44.406Z,1013.84
2017-03-28T04:26:43.989Z,1013.83
2017-03-28T04:27:39.090Z,1013.85
2017-03-28T04:28:34.164Z,1013.84
2017-03-28T04:29:35.139Z,1013.91
2017-03-28T04:30:35.127Z,1013.82
2017-03-28T04:31:35.204Z,1013.86
2017-03-28T04:32:30.711Z,1013.89
2017-03-28T04:33:24.254Z,1013.86
2017-03-28T04:34:25.310Z,1013.88
2017-03-28T04:35:25.331Z,1013.89
2017-03-28T04:36:25.531Z,1013.87
2017-03-28T04:37:25.351Z,1013.88
2017-03-28T04:38:31.348Z,1013.87
2017-03-28T04:39:26.454Z,1013.83
2017-03-28T04:40:26.514Z,1013.87
2017-03-28T04:41:20.487Z,1013.83
2017-03-28T04:42:20.872Z,1013.85
2017-03-28T04:43:16.026Z,1013.85
2017-03-28T04:44:15.553Z,1013.88
2017-03-28T04:45:15.532Z,1013.86
2017-03-28T04:46:15.636Z,1013.82
2017-03-28T04:47:09.686Z,1013.85
2017-03-28T04:48:09.744Z,1013.87
2017-03-28T04:49:04.682Z,1013.85
2017-03-28T04:49:59.743Z,1013.86
2017-03-28T04:50:54.172Z,1013.84
2017-03-28T04:51:53.734Z,1013.90
2017-03-28T04:52:48.787Z,1013.82
2017-03-28T04:53:44.093Z,1013.84
2017-03-28T04:54:43.866Z,1013.87
2017-03-28T04:55:38.908Z,1013.83
2017-03-28T04:56:33.970Z,1013.84
2017-03-28T04:57:33.895Z,1013.85
2017-03-28T04:58:29.022Z,1013.83
2017-03-28T04:59:29.018Z,1013.88
2017-03-28T05:00:30.029Z,1013.82
2017-03-28T05:01:31.048Z,1013.88
2017-03-28T05:02:25.418Z,1013.87
2017-03-28T05:03:25.536Z,1013.92
2017-03-28T05:04:20.157Z,1013.92
2017-03-28T05:05:15.249Z,1013.93
2017-03-28T05:06:09.204Z,1013.91
2017-03-28T05:07:09.234Z,1013.90
2017-03-28T05:08:04.302Z,1013.91
2017-03-28T05:08:59.268Z,1013.95
2017-03-28T05:09:59.247Z,1013.96
2017-03-28T05:10:59.373Z,1013.96
2017-03-28T05:11:59.356Z,1013.92
2017-03-28T05:12:54.412Z,1013.92
2017-03-28T05:13:49.453Z,1013.98
2017-03-28T05:14:43.455Z,1013.94
2017-03-28T05:15:44.526Z,1013.96
2017-03-28T05:16:39.581Z,1013.93
2017-03-28T05:17:39.520Z,1013.99
2017-03-28T05:18:39.580Z,1013.96
2017-03-28T05:19:39.560Z,1013.97
2017-03-28T05:20:39.617Z,1013.99
2017-03-28T05:21:39.635Z,1013.97
2017-03-28T05:22:39.645Z,1013.96
2017-03-28T05:23:39.645Z,1013.95
2017-03-28T05:24:45.677Z,1013.97
2017-03-28T05:25:40.741Z,1013.99
2017-03-28T05:26:40.782Z,1013.96
2017-03-28T05:27:40.828Z,1013.97
2017-03-28T05:28:40.818Z,1013.99
2017-03-28T05:29:40.933Z,1013.98
2017-03-28T05:30:34.851Z,1014.03
2017-03-28T05:31:34.872Z,1014.01
2017-03-28T05:32:30.127Z,1013.98
2017-03-28T05:33:24.950Z,1014.01
2017-03-28T05:34:25.024Z,1014.00
2017-03-28T05:35:25.056Z,1014.02
2017-03-28T05:36:19.065Z,1014.01
2017-03-28T05:37:19.066Z,1013.99
2017-03-28T05:38:14.136Z,1014.02
2017-03-28T05:39:14.130Z,1014.00
2017-03-28T05:40:14.153Z,1014.03
2017-03-28T05:41:14.274Z,1013.98
2017-03-28T05:42:14.269Z,1014.00
2017-03-28T05:43:14.259Z,1014.01
2017-03-28T05:44:08.234Z,1014.01
2017-03-28T05:45:08.521Z,1013.99
2017-03-28T05:46:03.862Z,1014.00
2017-03-28T05:47:03.835Z,1014.02
2017-03-28T05:48:05.025Z,1014.01
2017-03-28T05:49:06.027Z,1013.97
2017-03-28T05:50:06.850Z,1014.00
2017-03-28T05:51:00.581Z,1014.04
2017-03-28T05:52:00.514Z,1014.01
2017-03-28T05:52:55.590Z,1014.02
2017-03-28T05:53:50.526Z,1014.03
2017-03-28T05:54:44.622Z,1014.03
2017-03-28T05:55:44.610Z,1014.04
2017-03-28T05:56:40.123Z,1014.07
2017-03-28T05:57:34.884Z,1014.10
2017-03-28T05:58:34.683Z,1014.09
2017-03-28T05:59:29.730Z,1014.11
2017-03-28T06:00:24.828Z,1014.07
2017-03-28T06:01:19.131Z,1014.06
2017-03-28T06:02:20.494Z,1014.04
2017-03-28T06:03:14.830Z,1014.07
2017-03-28T06:04:14.840Z,1014.05
2017-03-28T06:05:14.915Z,1014.04
2017-03-28T06:06:14.936Z,1014.02
2017-03-28T06:07:14.931Z,1014.04
2017-03-28T06:08:15.498Z,1014.01
2017-03-28T06:09:21.021Z,1014.05
2017-03-28T06:10:15.983Z,1014.04
2017-03-28T06:11:16.232Z,1014.09
2017-03-28T06:12:16.067Z,1014.06
2017-03-28T06:13:10.636Z,1014.06
2017-03-28T06:14:10.931Z,1014.09
2017-03-28T06:15:05.310Z,1014.06
2017-03-28T06:16:00.290Z,1014.05
2017-03-28T06:16:54.248Z,1014.07
2017-03-28T06:17:54.309Z,1014.06
2017-03-28T06:18:49.344Z,1014.00
2017-03-28T06:19:49.729Z,1014.05
2017-03-28T06:20:49.439Z,1014.04
2017-03-28T06:21:49.444Z,1014.08
2017-03-28T06:22:43.929Z,1014.09
2017-03-28T06:23:44.724Z,1014.04
2017-03-28T06:24:45.510Z,1014.07
2017-03-28T06:25:45.755Z,1014.11
2017-03-28T06:26:40.604Z,1014.06
2017-03-28T06:27:35.640Z,1014.06
2017-03-28T06:28:35.637Z,1014.08
2017-03-28T06:29:30.760Z,1014.09
2017-03-28T06:30:25.802Z,1014.06
2017-03-28T06:31:20.021Z,1014.08
2017-03-28T06:32:19.812Z,1014.08
2017-03-28T06:33:15.351Z,1014.10
2017-03-28T06:34:15.301Z,1014.07
2017-03-28T06:35:15.182Z,1014.07
2017-03-28T06:36:15.385Z,1014.05
2017-03-28T06:37:09.031Z,1014.05
2017-03-28T06:38:09.081Z,1014.05
2017-03-28T06:39:04.121Z,1014.05
2017-03-28T06:39:59.098Z,1014.07
2017-03-28T06:40:53.169Z,1014.05
2017-03-28T06:41:53.148Z,1014.08
2017-03-28T06:42:49.018Z,1014.08
2017-03-28T06:43:42.276Z,1014.12
2017-03-28T06:44:42.389Z,1014.14
2017-03-28T06:45:36.367Z,1014.10
2017-03-28T06:46:30.445Z,1014.10
2017-03-28T06:47:20.073Z,1014.12
2017-03-28T06:48:13.468Z,1014.10
2017-03-28T06:49:08.571Z,1014.14
2017-03-28T06:50:03.534Z,1014.15
2017-03-28T06:50:57.635Z,1014.17
2017-03-28T06:51:51.937Z,1014.10
2017-03-28T06:52:46.700Z,1014.13
2017-03-28T06:53:40.986Z,1014.14
2017-03-28T06:54:34.744Z,1014.11
2017-03-28T06:55:28.838Z,1014.13
2017-03-28T06:56:23.104Z,1014.14
2017-03-28T06:57:16.958Z,1014.13
2017-03-28T06:58:17.079Z,1014.15
2017-03-28T06:59:10.961Z,1014.16
2017-03-28T07:00:11.144Z,1014.16
2017-03-28T07:01:05.036Z,1014.15
2017-03-28T07:01:54.567Z,1014.16
2017-03-28T07:02:54.593Z,1014.14
2017-03-28T07:03:42.371Z,1014.16
2017-03-28T07:04:37.275Z,1014.14
2017-03-28T07:05:43.236Z,1014.14
2017-03-28T07:06:38.283Z,1014.17
2017-03-28T07:07:27.343Z,1014.15
2017-03-28T07:08:21.413Z,1014.16
2017-03-28T07:09:15.386Z,1014.15
2017-03-28T07:10:09.535Z,1014.19
2017-03-28T07:11:09.532Z,1014.18
2017-03-28T07:12:04.571Z,1014.21
2017-03-28T07:13:04.628Z,1014.22
2017-03-28T07:14:04.658Z,1014.19
2017-03-28T07:14:59.698Z,1014.18
2017-03-28T07:15:59.685Z,1014.22
2017-03-28T07:16:54.748Z,1014.18
2017-03-28T07:17:43.979Z,1014.20
2017-03-28T07:18:32.864Z,1014.19
2017-03-28T07:19:20.944Z,1014.22
2017-03-28T07:20:14.921Z,1014.21
2017-03-28T07:21:09.026Z,1014.24
2017-03-28T07:22:03.077Z,1014.25
2017-03-28T07:22:57.586Z,1014.25
2017-03-28T07:23:57.831Z,1014.28
2017-03-28T07:24:51.236Z,1014.26
2017-03-28T07:25:46.229Z,1014.29
2017-03-28T07:26:35.853Z,1014.28
2017-03-28T07:27:24.307Z,1014.30
2017-03-28T07:28:12.406Z,1014.26
2017-03-28T07:29:01.142Z,1014.23
2017-03-28T07:29:54.566Z,1014.19
2017-03-28T07:30:43.566Z,1014.21
2017-03-28T07:31:37.564Z,1014.23
2017-03-28T07:32:37.660Z,1014.20
2017-03-28T07:33:25.676Z,1014.22
2017-03-28T07:34:19.758Z,1014.20
2017-03-28T07:35:19.757Z,1014.22
2017-03-28T07:36:08.848Z,1014.21
2017-03-28T07:37:08.931Z,1014.25
2017-03-28T07:38:04.162Z,1014.25
2017-03-28T07:38:58.975Z,1014.24
2017-03-28T07:39:47.027Z,1014.22
2017-03-28T07:40:35.015Z,1014.23
2017-03-28T07:41:29.062Z,1014.25
2017-03-28T07:42:29.295Z,1014.28
2017-03-28T07:43:18.588Z,1014.27
2017-03-28T07:44:13.322Z,1014.28
2017-03-28T07:45:08.258Z,1014.26
2017-03-28T07:46:03.581Z,1014.30
2017-03-28T07:46:57.370Z,1014.29
2017-03-28T07:47:51.444Z,1014.30
2017-03-28T07:48:45.476Z,1014.29
2017-03-28T07:49:40.474Z,1014.31
2017-03-28T07:50:40.509Z,1014.32
2017-03-28T07:51:36.124Z,1014.29
2017-03-28T07:52:30.668Z,1014.25
2017-03-28T07:53:31.740Z,1014.30
2017-03-28T07:54:31.738Z,1014.29
2017-03-28T07:55:25.952Z,1014.35
2017-03-28T07:56:20.883Z,1014.29
2017-03-28T07:57:15.936Z,1014.37
2017-03-28T07:58:04.942Z,1014.34
2017-03-28T07:58:54.064Z,1014.33
2017-03-28T07:59:48.032Z,1014.35
2017-03-28T08:00:42.063Z,1014.35
2017-03-28T08:01:31.136Z,1014.33
2017-03-28T08:02:25.266Z,1014.31
2017-03-28T08:03:25.307Z,1014.35
2017-03-28T08:04:13.253Z,1014.36
2017-03-28T08:05:13.339Z,1014.37
2017-03-28T08:06:01.355Z,1014.42
2017-03-28T08:06:50.459Z,1014.46
2017-03-28T08:07:50.593Z,1014.44
2017-03-28T08:08:39.160Z,1014.44
2017-03-28T08:09:27.922Z,1014.44
2017-03-28T08:10:22.651Z,1014.48
2017-03-28T08:11:16.709Z,1014.48
2017-03-28T08:12:04.805Z,1014.43
2017-03-28T08:13:04.850Z,1014.48
2017-03-28T08:13:52.930Z,1014.49
2017-03-28T08:14:47.408Z,1014.49
2017-03-28T08:15:35.983Z,1014.48
2017-03-28T08:16:31.073Z,1014.48
2017-03-28T08:17:25.168Z,1014.49
2017-03-28T08:18:20.120Z,1014.52
2017-03-28T08:19:14.352Z,1014.52
2017-03-28T08:20:02.286Z,1014.50
2017-03-28T08:21:02.348Z,1014.48
2017-03-28T08:21:57.327Z,1014.53
2017-03-28T08:22:51.407Z,1014.53
2017-03-28T08:23:45.490Z,1014.54
2017-03-28T08:24:34.485Z,1014.52
2017-03-28T08:25:34.870Z,1014.53
2017-03-28T08:26:34.690Z,1014.52
2017-03-28T08:27:28.691Z,1014.50
2017-03-28T08:28:23.668Z,1014.53
2017-03-28T08:29:18.144Z,1014.53
2017-03-28T08:30:05.766Z,1014.52
2017-03-28T08:30:54.944Z,1014.53
2017-03-28T08:31:48.855Z,1014.54
2017-03-28T08:32:44.480Z,1014.52
2017-03-28T08:33:33.096Z,1014.50
2017-03-28T08:34:33.184Z,1014.51
2017-03-28T08:35:33.069Z,1014.49
2017-03-28T08:36:22.481Z,1014.55
2017-03-28T08:37:16.834Z,1014.50
2017-03-28T08:38:05.251Z,1014.51
2017-03-28T08:39:00.343Z,1014.47
2017-03-28T08:39:54.490Z,1014.53
2017-03-28T08:40:49.410Z,1014.53
2017-03-28T08:41:50.458Z,1014.54
2017-03-28T08:42:50.484Z,1014.51
2017-03-28T08:43:44.721Z,1014.52
2017-03-28T08:44:38.609Z,1014.54
2017-03-28T08:45:27.665Z,1014.55
2017-03-28T08:46:22.746Z,1014.52
2017-03-28T08:47:23.196Z,1014.50
2017-03-28T08:48:18.309Z,1014.52
2017-03-28T08:49:12.112Z,1014.49
2017-03-28T08:50:06.539Z,1014.53
2017-03-28T08:51:01.013Z,1014.55
2017-03-28T08:51:55.068Z,1014.56
2017-03-28T08:52:55.141Z,1014.55
2017-03-28T08:53:50.475Z,1014.55
2017-03-28T08:54:45.257Z,1014.56
2017-03-28T08:55:34.244Z,1014.57
2017-03-28T08:56:28.318Z,1014.60
2017-03-28T08:57:23.323Z,1014.65
2017-03-28T08:58:18.736Z,1014.62
2017-03-28T08:59:18.851Z,1014.58
2017-03-28T09:00:07.669Z,1014.60
2017-03-28T09:00:56.586Z,1014.60
2017-03-28T09:01:51.074Z,1014.63
2017-03-28T09:02:45.672Z,1014.60
2017-03-28T09:03:40.319Z,1014.61
2017-03-28T09:04:34.813Z,1014.62
2017-03-28T09:05:28.930Z,1014.60
2017-03-28T09:06:16.909Z,1014.61
2017-03-28T09:07:05.969Z,1014.64
2017-03-28T09:08:01.061Z,1014.64
2017-03-28T09:08:56.313Z,1014.65
2017-03-28T09:09:44.192Z,1014.62
2017-03-28T09:10:38.240Z,1014.58
2017-03-28T09:11:32.318Z,1014.62
2017-03-28T09:12:21.784Z,1014.64
2017-03-28T09:13:09.463Z,1014.60
2017-03-28T09:13:58.500Z,1014.62
2017-03-28T09:14:58.607Z,1014.65
2017-03-28T09:15:58.530Z,1014.65
2017-03-28T09:16:53.257Z,1014.58
2017-03-28T09:17:46.662Z,1014.60
2017-03-28T09:18:34.733Z,1014.62
2017-03-28T09:19:29.058Z,1014.61
2017-03-28T09:20:24.515Z,1014.59
2017-03-28T09:21:24.358Z,1014.64
2017-03-28T09:22:17.925Z,1014.61
2017-03-28T09:23:12.094Z,1014.60
2017-03-28T09:24:06.071Z,1014.63
2017-03-28T09:25:01.092Z,1014.69
2017-03-28T09:25:56.677Z,1014.63
2017-03-28T09:26:50.235Z,1014.60
2017-03-28T09:27:44.231Z,1014.60
2017-03-28T09:28:38.364Z,1014.65
2017-03-28T09:29:26.880Z,1014.65
2017-03-28T09:30:21.484Z,1014.65
2017-03-28T09:31:10.516Z,1014.65
2017-03-28T09:32:10.544Z,1014.64
2017-03-28T09:33:04.630Z,1014.65
2017-03-28T09:33:58.925Z,1014.61
2017-03-28T09:34:46.741Z,1014.63
2017-03-28T09:35:40.856Z,1014.60
2017-03-28T09:36:29.844Z,1014.59
2017-03-28T09:37:18.912Z,1014.64
2017-03-28T09:38:18.998Z,1014.64
2017-03-28T09:39:13.010Z,1014.62
2017-03-28T09:40:08.352Z,1014.68
2017-03-28T09:41:08.161Z,1014.66
2017-03-28T09:42:03.220Z,1014.70
2017-03-28T09:43:03.317Z,1014.66
2017-03-28T09:43:58.971Z,1014.72
2017-03-28T09:44:46.457Z,1014.70
2017-03-28T09:45:35.585Z,1014.72
2017-03-28T09:46:30.379Z,1014.70
2017-03-28T09:47:23.524Z,1014.73
2017-03-28T09:48:23.628Z,1014.68
2017-03-28T09:49:18.653Z,1014.73
2017-03-28T09:50:12.740Z,1014.75
2017-03-28T09:51:02.002Z,1014.74
2017-03-28T09:51:51.236Z,1014.69
2017-03-28T09:52:44.928Z,1014.65
2017-03-28T09:53:39.036Z,1014.73
2017-03-28T09:54:28.019Z,1014.70
2017-03-28T09:55:29.437Z,1014.74
2017-03-28T09:56:18.089Z,1014.69
2017-03-28T09:57:06.521Z,1014.75
2017-03-28T09:58:06.197Z,1014.67
2017-03-28T09:59:00.749Z,1014.65
2017-03-28T09:59:49.324Z,1014.74
2017-03-28T10:00:44.357Z,1014.70
2017-03-28T10:01:33.545Z,1014.73
2017-03-28T10:02:27.538Z,1014.66
2017-03-28T10:03:21.512Z,1014.81
2017-03-28T10:04:09.682Z,1014.77
2017-03-28T10:05:09.653Z,1014.74
2017-03-28T10:06:04.186Z,1014.62
2017-03-28T10:06:57.836Z,1014.63
2017-03-28T10:07:47.019Z,1014.63
2017-03-28T10:08:40.919Z,1014.64
2017-03-28T10:09:36.033Z,1014.63
2017-03-28T10:10:30.028Z,1014.62
2017-03-28T10:11:18.106Z,1014.60
2017-03-28T10:12:18.344Z,1014.59
2017-03-28T10:13:12.253Z,1014.58
2017-03-28T10:14:06.643Z,1014.53
2017-03-28T10:14:54.363Z,1014.59
2017-03-28T10:15:49.445Z,1014.56
2017-03-28T10:16:43.523Z,1014.55
2017-03-28T10:17:37.550Z,1014.56
2017-03-28T10:18:31.661Z,1014.58
2017-03-28T10:19:20.106Z,1014.58
2017-03-28T10:20:08.822Z,1014.59
2017-03-28T10:20:57.922Z,1014.65
2017-03-28T10:21:52.941Z,1014.57
2017-03-28T10:22:47.027Z,1014.55
2017-03-28T10:23:42.407Z,1014.54
2017-03-28T10:24:31.634Z,1014.61
2017-03-28T10:25:26.284Z,1014.55
2017-03-28T10:26:15.391Z,1014.55
2017-03-28T10:27:09.391Z,1014.55
2017-03-28T10:28:04.524Z,1014.55
2017-03-28T10:28:58.641Z,1014.55
2017-03-28T10:29:52.650Z,1014.47
2017-03-28T10:30:41.704Z,1014.56
2017-03-28T10:31:35.932Z,1014.56
2017-03-28T10:32:24.987Z,1014.52
2017-03-28T10:33:18.955Z,1014.59
2017-03-28T10:34:13.806Z,1014.56
2017-03-28T10:35:07.045Z,1014.59
2017-03-28T10:35:56.076Z,1014.51
2017-03-28T10:36:50.149Z,1014.59
2017-03-28T10:37:50.220Z,1014.55
2017-03-28T10:38:45.274Z,1014.53
2017-03-28T10:39:39.865Z,1014.61
2017-03-28T10:40:28.459Z,1014.62
2017-03-28T10:41:23.519Z,1014.59
2017-03-28T10:42:17.759Z,1014.59
2017-03-28T10:43:06.735Z,1014.58
2017-03-28T10:43:54.792Z,1014.61
2017-03-28T10:44:44.434Z,1014.68
2017-03-28T10:45:38.832Z,1014.64
2017-03-28T10:46:32.911Z,1014.62
2017-03-28T10:47:22.438Z,1014.61
2017-03-28T10:48:15.966Z,1014.65
2017-03-28T10:49:04.070Z,1014.63
2017-03-28T10:49:59.137Z,1014.69
2017-03-28T10:50:48.156Z,1014.61
2017-03-28T10:51:48.236Z,1014.67
2017-03-28T10:52:42.707Z,1014.66
2017-03-28T10:53:36.365Z,1014.73
2017-03-28T10:54:30.477Z,1014.70
2017-03-28T10:55:24.523Z,1014.67
2017-03-28T10:56:13.657Z,1014.72
2017-03-28T10:57:01.634Z,1014.74
2017-03-28T10:57:55.894Z,1014.61
2017-03-28T10:58:44.879Z,1014.67
2017-03-28T10:59:44.845Z,1014.67
2017-03-28T11:00:39.232Z,1014.63
2017-03-28T11:01:33.111Z,1014.59
2017-03-28T11:02:22.038Z,1014.70
2017-03-28T11:03:16.165Z,1014.57
2017-03-28T11:04:10.165Z,1014.64
2017-03-28T11:05:04.285Z,1014.63
2017-03-28T11:05:59.418Z,1014.65
2017-03-28T11:06:47.936Z,1014.58
2017-03-28T11:07:41.520Z,1014.62
2017-03-28T11:08:29.583Z,1014.61
2017-03-28T11:09:24.580Z,1014.61
2017-03-28T11:10:19.104Z,1014.65
2017-03-28T11:11:07.875Z,1014.57
2017-03-28T11:12:07.844Z,1014.67
2017-03-28T11:13:08.076Z,1014.62
2017-03-28T11:13:57.062Z,1014.54
2017-03-28T11:14:46.167Z,1014.59
2017-03-28T11:15:41.119Z,1014.56
2017-03-28T11:16:42.277Z,1014.55